Laukaa, Finland
Kieli:  Suomi
CurCond
Päivitetty08/04/2020 23:21 
 

Lähistön Lentoasemien Säätiloja:

 

EFJY - Jyvaskyla (mil/C,) Finland
Etäisyys Sääasemalta: PKo 21km
Päivitetty: 08/04/2020 22:50
Selkeätä
Selkeätä
 Tuulen suunta ELo
Tuuli: ELo 13 km/h
Lämpötila: 7°C
Tuulen purevuus: 5°C
Kastepiste: 0°C
Ilmankosteus: 61%
Ilmanpaine: 1006 hPa
Yhteenveto: Selkeätä
Näkyvyys: Enemmän Kuin 10 km
2020/04/08 19:50 EFJY 081950Z AUTO 20007KT 170V230 CAVOK 07/M00 Q1006
EFHA - Halli (fin-Afb), Finland
Etäisyys Sääasemalta: Lo 56km
Päivitetty: 08/04/2020 22:50
Selkeätä
Selkeätä
 Tuulen suunta Lo
Tuuli: Lo 17 km/h
Lämpötila: 7°C
Tuulen purevuus: 4°C
Kastepiste: 0°C
Ilmankosteus: 61%
Ilmanpaine: 1007 hPa
Yhteenveto: Selkeätä
Näkyvyys: Enemmän Kuin 10 km
2020/04/08 19:50 EFHA 081950Z AUTO 22009KT 190V250 CAVOK 07/00 Q1007
EFMI - Mikkeli, Finland
Etäisyys Sääasemalta: IKa 105km
Päivitetty: 08/04/2020 22:50
Selkeätä
Selkeätä
 Tuulen suunta Lo
Tuuli: Lo 15 km/h
Lämpötila: 8°C
Tuulen purevuus: 5°C
Kastepiste: 0°C
Ilmankosteus: 57%
Ilmanpaine: 1009 hPa
Yhteenveto: Selkeätä
Näkyvyys: Enemmän Kuin 10 km
2020/04/08 19:50 EFMI 081950Z AUTO 22008KT 170V270 CAVOK 08/M00 Q1009
 
EFTP - Tampere/Pirkkala, Finland
Etäisyys Sääasemalta: Lo 135km
Päivitetty: 08/04/2020 23:20
Selkeätä
Selkeätä
 Tuulen suunta Lo
Tuuli: Lo 22 km/h
Lämpötila: 7°C
Tuulen purevuus: 4°C
Kastepiste: 0°C
Ilmankosteus: 61%
Ilmanpaine: 1008 hPa
Yhteenveto: Selkeätä
Näkyvyys: Enemmän Kuin 10 km
2020/04/08 20:20 EFTP 082020Z AUTO 22012KT CAVOK 07/00 Q1008
EFKU - Kuopio (mil/Civ), Finland
Etäisyys Sääasemalta: Ko 146km
Päivitetty: 08/04/2020 22:50
Selkeätä
Selkeätä
 Tuulen suunta Lo
Tuuli: Lo 17 km/h
Lämpötila: 7°C
Tuulen purevuus: 4°C
Kastepiste: -1°C
Ilmankosteus: 57%
Ilmanpaine: 1004 hPa
Yhteenveto: Selkeätä
Näkyvyys: Enemmän Kuin 10 km
2020/04/08 19:50 EFKU 081950Z AUTO 23009KT CAVOK 07/M01 Q1004
EFSI - Seinajoki-Ilmajo, Finland
Etäisyys Sääasemalta: LLu 149km
Päivitetty: 08/04/2020 22:50
Selkeätä
Selkeätä
 Tuulen suunta LLo
Tuuli: LLo 7 km/h
Lämpötila: 5°C
Tuulen purevuus: 3°C
Kastepiste: 1°C
Ilmankosteus: 76%
Ilmanpaine: 1005 hPa
Yhteenveto: Selkeätä
Näkyvyys: Enemmän Kuin 10 km
2020/04/08 19:50 EFSI 081950Z AUTO 24004KT 180V310 CAVOK 05/01 Q1005